sensor_id;sensor_type;location;lat;lon;timestamp;pressure;altitude;pressure_sealevel;temperature;humidity
5954;BME280;3002;42.642;24.812;2023-08-06T00:02:03;95230.50;;;27.67;67.67
5954;BME280;3002;42.642;24.812;2023-08-06T00:04:29;95233.09;;;27.74;67.80
5954;BME280;3002;42.642;24.812;2023-08-06T00:06:54;95233.91;;;27.55;69.22
5954;BME280;3002;42.642;24.812;2023-08-06T00:09:20;95236.75;;;27.71;70.06
5954;BME280;3002;42.642;24.812;2023-08-06T00:11:45;95230.22;;;27.62;70.46
5954;BME280;3002;42.642;24.812;2023-08-06T00:14:12;95227.25;;;27.72;71.08
5954;BME280;3002;42.642;24.812;2023-08-06T00:16:42;95231.84;;;27.79;71.52
5954;BME280;3002;42.642;24.812;2023-08-06T00:19:09;95238.94;;;27.40;74.04
5954;BME280;3002;42.642;24.812;2023-08-06T00:21:34;95231.94;;;27.19;75.75
5954;BME280;3002;42.642;24.812;2023-08-06T00:24:00;95229.16;;;26.80;80.51
5954;BME280;3002;42.642;24.812;2023-08-06T00:26:25;95236.91;;;27.05;80.62
5954;BME280;3002;42.642;24.812;2023-08-06T00:28:50;95224.00;;;27.21;78.13
5954;BME280;3002;42.642;24.812;2023-08-06T00:31:16;95234.75;;;27.36;76.85
5954;BME280;3002;42.642;24.812;2023-08-06T00:33:45;95232.59;;;27.43;76.27
5954;BME280;3002;42.642;24.812;2023-08-06T00:36:10;95248.00;;;27.21;76.83
5954;BME280;3002;42.642;24.812;2023-08-06T00:38:36;95235.44;;;27.00;78.18
5954;BME280;3002;42.642;24.812;2023-08-06T00:41:01;95230.94;;;26.70;78.59
5954;BME280;3002;42.642;24.812;2023-08-06T00:43:27;95217.22;;;26.47;78.45
5954;BME280;3002;42.642;24.812;2023-08-06T00:45:52;95213.41;;;26.40;78.02
5954;BME280;3002;42.642;24.812;2023-08-06T00:48:18;95207.13;;;26.60;76.82
5954;BME280;3002;42.642;24.812;2023-08-06T00:50:44;95203.47;;;26.66;76.62
5954;BME280;3002;42.642;24.812;2023-08-06T00:53:09;95202.25;;;26.48;77.95
5954;BME280;3002;42.642;24.812;2023-08-06T00:55:35;95179.50;;;26.47;77.26
5954;BME280;3002;42.642;24.812;2023-08-06T00:58:01;95181.09;;;26.45;77.65
5954;BME280;3002;42.642;24.812;2023-08-06T01:00:26;95198.94;;;26.56;77.37
5954;BME280;3002;42.642;24.812;2023-08-06T01:02:53;95202.75;;;26.62;76.43
5954;BME280;3002;42.642;24.812;2023-08-06T01:05:20;95194.94;;;26.61;75.86
5954;BME280;3002;42.642;24.812;2023-08-06T01:15:55;95166.94;;;26.66;75.37
5954;BME280;3002;42.642;24.812;2023-08-06T01:18:25;95167.53;;;26.34;78.75
5954;BME280;3002;42.642;24.812;2023-08-06T01:20:50;95153.72;;;26.37;78.38
5954;BME280;3002;42.642;24.812;2023-08-06T01:23:16;95146.31;;;26.58;77.28
5954;BME280;3002;42.642;24.812;2023-08-06T01:31:39;95152.72;;;26.51;78.37
5954;BME280;3002;42.642;24.812;2023-08-06T01:34:10;95143.41;;;26.45;78.27
5954;BME280;3002;42.642;24.812;2023-08-06T01:36:38;95157.06;;;26.49;79.14
5954;BME280;3002;42.642;24.812;2023-08-06T01:39:04;95160.97;;;26.51;78.75
5954;BME280;3002;42.642;24.812;2023-08-06T01:41:30;95170.34;;;26.54;79.70
5954;BME280;3002;42.642;24.812;2023-08-06T01:43:55;95143.09;;;26.39;80.10
5954;BME280;3002;42.642;24.812;2023-08-06T01:46:21;95145.03;;;26.42;79.76
5954;BME280;3002;42.642;24.812;2023-08-06T01:48:46;95159.41;;;26.27;83.29
5954;BME280;3002;42.642;24.812;2023-08-06T01:51:12;95163.72;;;26.28;83.77
5954;BME280;3002;42.642;24.812;2023-08-06T01:53:37;95148.91;;;26.65;81.09
5954;BME280;3002;42.642;24.812;2023-08-06T01:56:03;95130.22;;;26.56;82.09
5954;BME280;3002;42.642;24.812;2023-08-06T01:58:28;95141.69;;;26.91;79.50
5954;BME280;3002;42.642;24.812;2023-08-06T02:00:54;95133.38;;;26.75;80.83
5954;BME280;3002;42.642;24.812;2023-08-06T02:03:19;95124.59;;;26.63;82.43
5954;BME280;3002;42.642;24.812;2023-08-06T02:05:44;95127.31;;;26.44;84.50
5954;BME280;3002;42.642;24.812;2023-08-06T02:08:11;95131.81;;;26.74;82.38
5954;BME280;3002;42.642;24.812;2023-08-06T02:10:36;95132.56;;;26.58;83.52
5954;BME280;3002;42.642;24.812;2023-08-06T02:13:01;95130.13;;;26.80;81.74
5954;BME280;3002;42.642;24.812;2023-08-06T02:15:27;95133.59;;;26.84;85.89
5954;BME280;3002;42.642;24.812;2023-08-06T02:17:52;95147.69;;;26.86;86.33
5954;BME280;3002;42.642;24.812;2023-08-06T02:20:18;95156.84;;;26.79;88.47
5954;BME280;3002;42.642;24.812;2023-08-06T02:22:43;95139.31;;;26.93;87.16
5954;BME280;3002;42.642;24.812;2023-08-06T02:25:09;95147.34;;;26.84;87.04
5954;BME280;3002;42.642;24.812;2023-08-06T02:27:34;95147.13;;;26.55;87.89
5954;BME280;3002;42.642;24.812;2023-08-06T02:30:00;95124.66;;;26.60;87.33
5954;BME280;3002;42.642;24.812;2023-08-06T02:32:25;95127.06;;;26.58;89.04
5954;BME280;3002;42.642;24.812;2023-08-06T02:34:51;95138.03;;;26.78;86.74
5954;BME280;3002;42.642;24.812;2023-08-06T02:37:16;95142.88;;;26.90;85.81
5954;BME280;3002;42.642;24.812;2023-08-06T02:39:42;95115.88;;;26.85;87.22
5954;BME280;3002;42.642;24.812;2023-08-06T02:42:08;95110.22;;;26.92;86.09
5954;BME280;3002;42.642;24.812;2023-08-06T02:44:34;95119.25;;;26.92;87.07
5954;BME280;3002;42.642;24.812;2023-08-06T02:47:00;95109.63;;;26.45;91.01
5954;BME280;3002;42.642;24.812;2023-08-06T02:49:26;95108.41;;;26.26;93.42
5954;BME280;3002;42.642;24.812;2023-08-06T02:51:51;95106.13;;;26.21;93.77
5954;BME280;3002;42.642;24.812;2023-08-06T02:54:18;95104.72;;;26.12;94.71
5954;BME280;3002;42.642;24.812;2023-08-06T02:56:44;95107.31;;;26.00;97.88
5954;BME280;3002;42.642;24.812;2023-08-06T02:59:10;95110.69;;;26.51;91.94
5954;BME280;3002;42.642;24.812;2023-08-06T03:01:36;95111.63;;;26.64;90.73
5954;BME280;3002;42.642;24.812;2023-08-06T03:04:01;95126.25;;;26.77;89.57
5954;BME280;3002;42.642;24.812;2023-08-06T03:06:27;95129.91;;;26.90;88.26
5954;BME280;3002;42.642;24.812;2023-08-06T03:08:52;95137.78;;;26.52;93.91
5954;BME280;3002;42.642;24.812;2023-08-06T03:11:18;95150.41;;;26.70;92.74
5954;BME280;3002;42.642;24.812;2023-08-06T03:13:43;95144.16;;;26.85;91.51
5954;BME280;3002;42.642;24.812;2023-08-06T03:16:09;95140.88;;;26.54;92.87
5954;BME280;3002;42.642;24.812;2023-08-06T03:18:34;95134.19;;;26.32;92.83
5954;BME280;3002;42.642;24.812;2023-08-06T03:21:00;95137.88;;;26.02;95.66
5954;BME280;3002;42.642;24.812;2023-08-06T03:23:25;95139.53;;;26.19;95.75
5954;BME280;3002;42.642;24.812;2023-08-06T03:25:50;95127.97;;;26.51;90.90
5954;BME280;3002;42.642;24.812;2023-08-06T03:28:16;95137.53;;;26.83;87.55
5954;BME280;3002;42.642;24.812;2023-08-06T03:30:42;95136.72;;;26.46;91.50
5954;BME280;3002;42.642;24.812;2023-08-06T03:33:07;95140.16;;;26.27;93.55
5954;BME280;3002;42.642;24.812;2023-08-06T03:35:33;95139.97;;;26.37;93.72
5954;BME280;3002;42.642;24.812;2023-08-06T03:37:58;95143.41;;;26.45;93.38
5954;BME280;3002;42.642;24.812;2023-08-06T03:40:24;95142.06;;;26.53;96.93
5954;BME280;3002;42.642;24.812;2023-08-06T03:42:49;95138.19;;;26.71;94.33
5954;BME280;3002;42.642;24.812;2023-08-06T03:45:15;95137.50;;;26.23;99.31
5954;BME280;3002;42.642;24.812;2023-08-06T03:47:40;95119.78;;;26.48;96.05
5954;BME280;3002;42.642;24.812;2023-08-06T03:50:06;95152.72;;;26.51;98.43
5954;BME280;3002;42.642;24.812;2023-08-06T03:52:32;95148.34;;;26.54;95.88
5954;BME280;3002;42.642;24.812;2023-08-06T03:54:57;95154.75;;;26.47;96.43
5954;BME280;3002;42.642;24.812;2023-08-06T03:57:22;95154.41;;;26.65;94.29
5954;BME280;3002;42.642;24.812;2023-08-06T03:59:48;95135.22;;;26.61;91.75
5954;BME280;3002;42.642;24.812;2023-08-06T04:02:13;95141.22;;;26.33;96.63
5954;BME280;3002;42.642;24.812;2023-08-06T04:04:39;95132.31;;;26.29;97.46
5954;BME280;3002;42.642;24.812;2023-08-06T04:07:04;95140.44;;;26.76;93.82
5954;BME280;3002;42.642;24.812;2023-08-06T04:09:30;95147.56;;;26.93;95.04
5954;BME280;3002;42.642;24.812;2023-08-06T04:11:55;95142.47;;;26.91;93.65
5954;BME280;3002;42.642;24.812;2023-08-06T04:14:21;95147.34;;;26.84;97.92
5954;BME280;3002;42.642;24.812;2023-08-06T04:16:47;95137.19;;;26.81;98.95
5954;BME280;3002;42.642;24.812;2023-08-06T04:19:12;95121.69;;;26.71;100.00
5954;BME280;3002;42.642;24.812;2023-08-06T04:21:38;95133.59;;;26.84;99.34
5954;BME280;3002;42.642;24.812;2023-08-06T04:24:03;95132.88;;;26.40;100.00
5954;BME280;3002;42.642;24.812;2023-08-06T04:26:29;95141.16;;;26.17;100.00
5954;BME280;3002;42.642;24.812;2023-08-06T04:28:54;95122.72;;;26.37;98.19
5954;BME280;3002;42.642;24.812;2023-08-06T04:31:21;95129.53;;;26.52;97.71
5954;BME280;3002;42.642;24.812;2023-08-06T04:33:46;95116.63;;;26.69;97.77
5954;BME280;3002;42.642;24.812;2023-08-06T04:36:12;95118.16;;;26.70;98.00
5954;BME280;3002;42.642;24.812;2023-08-06T04:38:37;95147.28;;;27.07;97.91
5954;BME280;3002;42.642;24.812;2023-08-06T04:41:03;95136.41;;;26.80;100.00
5954;BME280;3002;42.642;24.812;2023-08-06T04:43:29;95136.19;;;26.91;100.00
5954;BME280;3002;42.642;24.812;2023-08-06T04:45:55;95142.97;;;27.06;100.00
5954;BME280;3002;42.642;24.812;2023-08-06T04:48:21;95130.28;;;26.73;100.00
5954;BME280;3002;42.642;24.812;2023-08-06T04:50:56;95126.38;;;27.10;100.00
5954;BME280;3002;42.642;24.812;2023-08-06T04:53:21;95106.19;;;26.97;99.65
5954;BME280;3002;42.642;24.812;2023-08-06T04:55:47;95113.25;;;27.34;95.68
5954;BME280;3002;42.642;24.812;2023-08-06T04:58:13;95149.88;;;27.83;93.23
5954;BME280;3002;42.642;24.812;2023-08-06T05:00:38;95142.53;;;27.60;94.35
5954;BME280;3002;42.642;24.812;2023-08-06T05:03:05;95143.63;;;27.63;95.29
5954;BME280;3002;42.642;24.812;2023-08-06T05:05:30;95135.22;;;27.54;96.11
5954;BME280;3002;42.642;24.812;2023-08-06T05:07:57;95127.72;;;27.54;98.19
5954;BME280;3002;42.642;24.812;2023-08-06T05:10:24;95128.44;;;27.74;97.40
5954;BME280;3002;42.642;24.812;2023-08-06T05:12:50;95135.84;;;27.78;94.66
5954;BME280;3002;42.642;24.812;2023-08-06T05:15:15;95143.63;;;27.46;100.00
5954;BME280;3002;42.642;24.812;2023-08-06T05:17:41;95134.00;;;27.55;99.90
5954;BME280;3002;42.642;24.812;2023-08-06T05:20:07;95116.97;;;27.76;97.31
5954;BME280;3002;42.642;24.812;2023-08-06T05:22:32;95115.53;;;27.71;98.50
5954;BME280;3002;42.642;24.812;2023-08-06T05:24:58;95119.19;;;28.43;92.18
5954;BME280;3002;42.642;24.812;2023-08-06T05:27:23;95125.84;;;28.45;91.01
5954;BME280;3002;42.642;24.812;2023-08-06T05:29:48;95134.63;;;27.79;96.90
5954;BME280;3002;42.642;24.812;2023-08-06T05:32:14;95141.13;;;27.52;100.00
5954;BME280;3002;42.642;24.812;2023-08-06T05:34:39;95104.72;;;27.93;95.73
5954;BME280;3002;42.642;24.812;2023-08-06T05:37:07;95112.78;;;28.17;93.89
5954;BME280;3002;42.642;24.812;2023-08-06T05:39:32;95114.84;;;28.13;93.25
5954;BME280;3002;42.642;24.812;2023-08-06T05:41:57;95141.22;;;28.14;95.09
5954;BME280;3002;42.642;24.812;2023-08-06T05:44:23;95136.81;;;27.71;96.17
5954;BME280;3002;42.642;24.812;2023-08-06T05:46:49;95138.94;;;27.80;96.03
5954;BME280;3002;42.642;24.812;2023-08-06T05:49:15;95131.94;;;28.08;94.08
5954;BME280;3002;42.642;24.812;2023-08-06T05:51:41;95100.94;;;28.04;94.25
5954;BME280;3002;42.642;24.812;2023-08-06T05:54:07;95083.34;;;28.43;88.49
5954;BME280;3002;42.642;24.812;2023-08-06T05:56:32;95099.34;;;28.90;84.02
5954;BME280;3002;42.642;24.812;2023-08-06T05:58:58;95111.84;;;29.07;82.68
5954;BME280;3002;42.642;24.812;2023-08-06T06:01:23;95102.63;;;28.85;83.70
5954;BME280;3002;42.642;24.812;2023-08-06T06:03:48;95098.22;;;28.74;83.03
5954;BME280;3002;42.642;24.812;2023-08-06T06:06:14;95100.78;;;28.40;86.58
5954;BME280;3002;42.642;24.812;2023-08-06T06:08:39;95101.81;;;28.59;85.19
5954;BME280;3002;42.642;24.812;2023-08-06T06:11:05;95104.75;;;28.22;87.76
5954;BME280;3002;42.642;24.812;2023-08-06T06:13:30;95112.53;;;28.11;87.76
5954;BME280;3002;42.642;24.812;2023-08-06T06:15:56;95124.69;;;28.14;88.82
5954;BME280;3002;42.642;24.812;2023-08-06T06:18:22;95133.00;;;27.81;91.38
5954;BME280;3002;42.642;24.812;2023-08-06T06:20:47;95144.78;;;27.98;91.31
5954;BME280;3002;42.642;24.812;2023-08-06T06:23:13;95132.66;;;27.79;92.89
5954;BME280;3002;42.642;24.812;2023-08-06T06:25:43;95119.03;;;27.88;91.62
5954;BME280;3002;42.642;24.812;2023-08-06T06:28:09;95109.56;;;27.57;96.49
5954;BME280;3002;42.642;24.812;2023-08-06T06:30:34;95117.56;;;27.67;95.25
5954;BME280;3002;42.642;24.812;2023-08-06T06:33:00;95124.25;;;28.15;91.38
5954;BME280;3002;42.642;24.812;2023-08-06T06:35:25;95126.06;;;28.06;91.40
5954;BME280;3002;42.642;24.812;2023-08-06T06:37:51;95132.59;;;28.12;91.02
5954;BME280;3002;42.642;24.812;2023-08-06T06:40:16;95139.72;;;27.80;94.12
5954;BME280;3002;42.642;24.812;2023-08-06T06:42:42;95150.91;;;27.73;93.67
5954;BME280;3002;42.642;24.812;2023-08-06T06:45:08;95170.34;;;27.66;95.31
5954;BME280;3002;42.642;24.812;2023-08-06T06:47:34;95165.84;;;27.56;97.63
5954;BME280;3002;42.642;24.812;2023-08-06T06:49:59;95177.59;;;27.40;100.00
5954;BME280;3002;42.642;24.812;2023-08-06T06:52:25;95182.56;;;27.29;100.00
5954;BME280;3002;42.642;24.812;2023-08-06T06:54:50;95164.91;;;27.10;100.00
5954;BME280;3002;42.642;24.812;2023-08-06T06:57:15;95128.53;;;26.99;100.00
5954;BME280;3002;42.642;24.812;2023-08-06T06:59:41;95095.06;;;26.84;100.00
5954;BME280;3002;42.642;24.812;2023-08-06T07:02:06;95092.72;;;27.02;100.00
5954;BME280;3002;42.642;24.812;2023-08-06T07:04:32;95144.03;;;27.29;100.00
5954;BME280;3002;42.642;24.812;2023-08-06T07:06:57;95146.19;;;27.01;100.00
5954;BME280;3002;42.642;24.812;2023-08-06T07:09:23;95148.81;;;27.08;100.00
5954;BME280;3002;42.642;24.812;2023-08-06T07:11:48;95115.38;;;27.26;100.00
5954;BME280;3002;42.642;24.812;2023-08-06T07:14:14;95116.44;;;27.32;100.00
5954;BME280;3002;42.642;24.812;2023-08-06T07:16:39;95112.63;;;27.26;100.00
5954;BME280;3002;42.642;24.812;2023-08-06T07:19:05;95119.09;;;27.19;100.00
5954;BME280;3002;42.642;24.812;2023-08-06T07:21:31;95116.34;;;27.36;100.00
5954;BME280;3002;42.642;24.812;2023-08-06T07:23:57;95130.16;;;27.85;100.00
5954;BME280;3002;42.642;24.812;2023-08-06T07:26:24;95117.59;;;27.84;100.00
5954;BME280;3002;42.642;24.812;2023-08-06T07:28:50;95131.88;;;28.69;100.00
5954;BME280;3002;42.642;24.812;2023-08-06T07:31:15;95130.31;;;28.97;100.00
5954;BME280;3002;42.642;24.812;2023-08-06T07:33:41;95135.22;;;28.90;100.00
5954;BME280;3002;42.642;24.812;2023-08-06T07:36:11;95135.06;;;29.35;100.00
5954;BME280;3002;42.642;24.812;2023-08-06T07:38:37;95135.91;;;30.65;90.82
5954;BME280;3002;42.642;24.812;2023-08-06T07:41:03;95144.50;;;32.50;75.67
5954;BME280;3002;42.642;24.812;2023-08-06T07:43:29;95132.63;;;32.95;70.54
5954;BME280;3002;42.642;24.812;2023-08-06T07:45:58;95108.41;;;33.47;65.98
5954;BME280;3002;42.642;24.812;2023-08-06T07:48:24;95113.13;;;33.56;65.40
5954;BME280;3002;42.642;24.812;2023-08-06T07:50:54;95115.03;;;32.89;66.63
5954;BME280;3002;42.642;24.812;2023-08-06T07:53:21;95109.06;;;32.63;67.93
5954;BME280;3002;42.642;24.812;2023-08-06T07:55:53;95113.09;;;33.23;65.14
5954;BME280;3002;42.642;24.812;2023-08-06T07:58:20;95101.81;;;32.47;67.86
5954;BME280;3002;42.642;24.812;2023-08-06T08:00:46;95086.59;;;33.46;63.27
5954;BME280;3002;42.642;24.812;2023-08-06T08:03:15;95098.31;;;34.55;59.14
5954;BME280;3002;42.642;24.812;2023-08-06T08:05:42;95113.88;;;33.23;62.12
5954;BME280;3002;42.642;24.812;2023-08-06T08:08:07;95109.72;;;33.10;61.46
5954;BME280;3002;42.642;24.812;2023-08-06T08:10:33;95116.13;;;32.09;66.80
5954;BME280;3002;42.642;24.812;2023-08-06T08:13:00;95114.72;;;30.93;72.93
5954;BME280;3002;42.642;24.812;2023-08-06T08:15:28;95085.00;;;30.19;79.29
5954;BME280;3002;42.642;24.812;2023-08-06T08:17:53;95098.38;;;30.64;76.52
5954;BME280;3002;42.642;24.812;2023-08-06T08:20:20;95098.53;;;31.13;75.16
5954;BME280;3002;42.642;24.812;2023-08-06T08:22:45;95099.66;;;32.42;67.49
5954;BME280;3002;42.642;24.812;2023-08-06T08:25:12;95109.63;;;32.95;62.56
5954;BME280;3002;42.642;24.812;2023-08-06T08:27:37;95094.84;;;32.06;66.38
5954;BME280;3002;42.642;24.812;2023-08-06T08:30:03;95113.00;;;31.49;66.77
5954;BME280;3002;42.642;24.812;2023-08-06T08:32:29;95087.59;;;31.10;68.43
5954;BME280;3002;42.642;24.812;2023-08-06T08:34:55;95060.97;;;31.03;67.32
5954;BME280;3002;42.642;24.812;2023-08-06T08:37:20;95049.66;;;30.88;63.90
5954;BME280;3002;42.642;24.812;2023-08-06T08:39:45;95063.63;;;31.16;61.18
5954;BME280;3002;42.642;24.812;2023-08-06T08:42:11;95053.88;;;30.27;61.77
5954;BME280;3002;42.642;24.812;2023-08-06T08:44:37;95039.22;;;28.97;66.63
5954;BME280;3002;42.642;24.812;2023-08-06T08:47:07;95053.72;;;28.60;69.43
5954;BME280;3002;42.642;24.812;2023-08-06T08:49:36;95076.25;;;27.67;75.30
5954;BME280;3002;42.642;24.812;2023-08-06T08:52:02;95110.06;;;27.19;77.72
5954;BME280;3002;42.642;24.812;2023-08-06T08:54:32;95166.63;;;25.74;100.00
5954;BME280;3002;42.642;24.812;2023-08-06T08:56:58;95185.13;;;24.47;100.00
5954;BME280;3002;42.642;24.812;2023-08-06T08:59:24;95204.38;;;23.33;100.00
5954;BME280;3002;42.642;24.812;2023-08-06T09:01:49;95162.91;;;22.61;100.00
5954;BME280;3002;42.642;24.812;2023-08-06T09:04:18;95164.56;;;22.30;100.00
5954;BME280;3002;42.642;24.812;2023-08-06T09:06:46;95208.69;;;21.78;100.00
5954;BME280;3002;42.642;24.812;2023-08-06T09:09:16;95222.72;;;21.95;100.00
5954;BME280;3002;42.642;24.812;2023-08-06T09:11:47;95262.50;;;21.92;100.00
5954;BME280;3002;42.642;24.812;2023-08-06T09:14:14;95243.00;;;22.04;100.00
5954;BME280;3002;42.642;24.812;2023-08-06T09:16:40;95217.25;;;21.80;100.00
5954;BME280;3002;42.642;24.812;2023-08-06T09:19:11;95191.56;;;21.78;100.00
5954;BME280;3002;42.642;24.812;2023-08-06T09:21:43;95155.66;;;22.11;100.00
5954;BME280;3002;42.642;24.812;2023-08-06T09:24:10;95129.13;;;22.19;100.00
5954;BME280;3002;42.642;24.812;2023-08-06T09:26:43;95102.94;;;22.29;100.00
5954;BME280;3002;42.642;24.812;2023-08-06T09:29:10;95110.25;;;22.57;100.00
5954;BME280;3002;42.642;24.812;2023-08-06T09:31:48;95109.81;;;22.69;100.00
5954;BME280;3002;42.642;24.812;2023-08-06T09:34:21;95131.19;;;22.92;100.00
5954;BME280;3002;42.642;24.812;2023-08-06T09:36:48;95137.16;;;23.35;100.00
5954;BME280;3002;42.642;24.812;2023-08-06T09:39:17;95136.69;;;23.47;100.00
5954;BME280;3002;42.642;24.812;2023-08-06T09:41:44;95158.84;;;24.50;100.00
5954;BME280;3002;42.642;24.812;2023-08-06T09:44:17;95137.09;;;26.01;100.00
5954;BME280;3002;42.642;24.812;2023-08-06T09:46:50;95156.59;;;26.30;100.00
5954;BME280;3002;42.642;24.812;2023-08-06T09:49:18;95161.56;;;27.87;93.89
5954;BME280;3002;42.642;24.812;2023-08-06T09:51:44;95126.19;;;27.69;92.42
5954;BME280;3002;42.642;24.812;2023-08-06T09:54:12;95151.56;;;27.61;100.00
5954;BME280;3002;42.642;24.812;2023-08-06T09:56:38;95148.88;;;26.85;98.27
5954;BME280;3002;42.642;24.812;2023-08-06T09:59:07;95160.09;;;27.66;94.02
5954;BME280;3002;42.642;24.812;2023-08-06T10:01:34;95161.81;;;27.60;97.52
5954;BME280;3002;42.642;24.812;2023-08-06T10:04:03;95171.22;;;28.57;92.96
5954;BME280;3002;42.642;24.812;2023-08-06T10:06:29;95158.34;;;29.98;88.92
5954;BME280;3002;42.642;24.812;2023-08-06T10:08:55;95159.47;;;31.13;76.06
5954;BME280;3002;42.642;24.812;2023-08-06T10:11:24;95161.88;;;32.23;68.25
5954;BME280;3002;42.642;24.812;2023-08-06T10:13:55;95151.31;;;32.40;68.68
5954;BME280;3002;42.642;24.812;2023-08-06T10:16:22;95147.53;;;32.06;66.81
5954;BME280;3002;42.642;24.812;2023-08-06T10:18:49;95154.38;;;31.74;74.62
5954;BME280;3002;42.642;24.812;2023-08-06T10:21:15;95137.56;;;32.82;68.99
5954;BME280;3002;42.642;24.812;2023-08-06T10:23:41;95146.19;;;33.87;62.56
5954;BME280;3002;42.642;24.812;2023-08-06T10:26:07;95140.41;;;33.24;60.95
5954;BME280;3002;42.642;24.812;2023-08-06T10:28:37;95120.94;;;30.53;74.40
5954;BME280;3002;42.642;24.812;2023-08-06T10:31:04;95123.94;;;29.99;80.04
5954;BME280;3002;42.642;24.812;2023-08-06T10:33:46;95130.88;;;30.95;76.12
5954;BME280;3002;42.642;24.812;2023-08-06T10:36:12;95108.44;;;30.71;74.11
5954;BME280;3002;42.642;24.812;2023-08-06T10:38:48;95115.75;;;31.89;69.26
5954;BME280;3002;42.642;24.812;2023-08-06T10:41:28;95121.47;;;32.86;64.67
5954;BME280;3002;42.642;24.812;2023-08-06T10:44:06;95103.47;;;33.33;62.66
5954;BME280;3002;42.642;24.812;2023-08-06T10:46:35;95102.09;;;32.04;67.17
5954;BME280;3002;42.642;24.812;2023-08-06T10:49:01;95104.69;;;32.90;64.35
5954;BME280;3002;42.642;24.812;2023-08-06T10:51:27;95108.22;;;31.80;67.08
5954;BME280;3002;42.642;24.812;2023-08-06T10:53:53;95111.28;;;30.80;72.21
5954;BME280;3002;42.642;24.812;2023-08-06T10:56:24;95113.59;;;30.59;76.28
5954;BME280;3002;42.642;24.812;2023-08-06T10:58:56;95115.69;;;31.61;67.81
5954;BME280;3002;42.642;24.812;2023-08-06T11:01:23;95099.66;;;31.65;67.58
5954;BME280;3002;42.642;24.812;2023-08-06T11:03:49;95105.94;;;32.24;66.15
5954;BME280;3002;42.642;24.812;2023-08-06T11:06:20;95117.06;;;32.89;63.75
5954;BME280;3002;42.642;24.812;2023-08-06T11:08:50;95110.84;;;31.93;65.93
5954;BME280;3002;42.642;24.812;2023-08-06T11:11:17;95112.38;;;33.04;62.62
5954;BME280;3002;42.642;24.812;2023-08-06T11:13:45;95126.47;;;33.43;60.42
5954;BME280;3002;42.642;24.812;2023-08-06T11:16:18;95123.56;;;33.28;58.34
5954;BME280;3002;42.642;24.812;2023-08-06T11:18:44;95117.00;;;34.54;52.61
5954;BME280;3002;42.642;24.812;2023-08-06T11:21:10;95128.31;;;35.04;51.91
5954;BME280;3002;42.642;24.812;2023-08-06T11:23:37;95119.81;;;34.84;52.72
5954;BME280;3002;42.642;24.812;2023-08-06T11:26:03;95123.75;;;34.63;52.11
5954;BME280;3002;42.642;24.812;2023-08-06T11:28:28;95126.03;;;33.26;55.13
5954;BME280;3002;42.642;24.812;2023-08-06T11:30:54;95112.34;;;34.13;50.94
5954;BME280;3002;42.642;24.812;2023-08-06T11:33:26;95139.75;;;34.53;53.32
5954;BME280;3002;42.642;24.812;2023-08-06T11:35:54;95137.34;;;34.99;44.04
5954;BME280;3002;42.642;24.812;2023-08-06T11:38:20;95141.00;;;36.00;39.98
5954;BME280;3002;42.642;24.812;2023-08-06T11:40:46;95126.47;;;36.16;39.48
5954;BME280;3002;42.642;24.812;2023-08-06T11:43:13;95130.84;;;37.36;39.90
5954;BME280;3002;42.642;24.812;2023-08-06T11:45:39;95119.47;;;36.87;38.07
5954;BME280;3002;42.642;24.812;2023-08-06T11:48:06;95125.72;;;38.51;38.05
5954;BME280;3002;42.642;24.812;2023-08-06T11:50:36;95140.44;;;37.03;36.67
5954;BME280;3002;42.642;24.812;2023-08-06T11:53:03;95132.59;;;38.62;34.46
5954;BME280;3002;42.642;24.812;2023-08-06T11:55:29;95118.25;;;38.32;34.68
5954;BME280;3002;42.642;24.812;2023-08-06T11:57:55;95133.66;;;38.64;36.14
5954;BME280;3002;42.642;24.812;2023-08-06T12:00:23;95144.53;;;38.02;35.75
5954;BME280;3002;42.642;24.812;2023-08-06T12:02:49;95118.44;;;37.80;34.55
5954;BME280;3002;42.642;24.812;2023-08-06T12:05:19;95129.53;;;37.63;33.88
5954;BME280;3002;42.642;24.812;2023-08-06T12:07:54;95124.91;;;37.60;38.98
5954;BME280;3002;42.642;24.812;2023-08-06T12:10:21;95125.41;;;37.58;37.22
5954;BME280;3002;42.642;24.812;2023-08-06T12:12:47;95132.97;;;36.89;37.54
5954;BME280;3002;42.642;24.812;2023-08-06T12:15:13;95130.09;;;35.66;40.29
5954;BME280;3002;42.642;24.812;2023-08-06T12:17:39;95136.56;;;35.58;40.46
5954;BME280;3002;42.642;24.812;2023-08-06T12:20:06;95132.00;;;34.33;39.18
5954;BME280;3002;42.642;24.812;2023-08-06T12:22:33;95140.63;;;34.35;39.25
5954;BME280;3002;42.642;24.812;2023-08-06T12:25:03;95140.97;;;34.13;44.19
5954;BME280;3002;42.642;24.812;2023-08-06T12:27:36;95144.69;;;33.44;42.74
5954;BME280;3002;42.642;24.812;2023-08-06T12:30:03;95122.09;;;33.09;42.78
5954;BME280;3002;42.642;24.812;2023-08-06T12:32:29;95116.06;;;33.52;43.37
5954;BME280;3002;42.642;24.812;2023-08-06T12:34:54;95131.59;;;33.26;42.80
5954;BME280;3002;42.642;24.812;2023-08-06T12:37:20;95128.16;;;32.89;43.22
5954;BME280;3002;42.642;24.812;2023-08-06T12:39:45;95128.63;;;32.50;42.57
5954;BME280;3002;42.642;24.812;2023-08-06T12:42:11;95125.41;;;32.34;44.53
5954;BME280;3002;42.642;24.812;2023-08-06T12:44:36;95123.19;;;32.84;44.54
5954;BME280;3002;42.642;24.812;2023-08-06T12:47:02;95130.59;;;32.68;45.48
5954;BME280;3002;42.642;24.812;2023-08-06T12:49:28;95128.47;;;32.54;44.28
5954;BME280;3002;42.642;24.812;2023-08-06T12:52:31;95126.75;;;32.29;44.96
5954;BME280;3002;42.642;24.812;2023-08-06T12:54:56;95120.78;;;32.58;43.68
5954;BME280;3002;42.642;24.812;2023-08-06T12:57:22;95122.00;;;32.75;43.99
5954;BME280;3002;42.642;24.812;2023-08-06T12:59:47;95115.97;;;32.68;44.44
5954;BME280;3002;42.642;24.812;2023-08-06T13:02:13;95104.72;;;32.53;45.14
5954;BME280;3002;42.642;24.812;2023-08-06T13:04:40;95127.97;;;32.92;45.40
5954;BME280;3002;42.642;24.812;2023-08-06T13:07:05;95128.63;;;33.39;45.11
5954;BME280;3002;42.642;24.812;2023-08-06T13:09:32;95103.63;;;32.87;44.32
5954;BME280;3002;42.642;24.812;2023-08-06T13:11:58;95136.47;;;33.82;42.02
5954;BME280;3002;42.642;24.812;2023-08-06T13:14:25;95136.19;;;34.52;40.33
5954;BME280;3002;42.642;24.812;2023-08-06T13:16:51;95123.59;;;35.10;38.71
5954;BME280;3002;42.642;24.812;2023-08-06T13:19:16;95133.06;;;34.74;38.78
5954;BME280;3002;42.642;24.812;2023-08-06T13:24:08;95129.31;;;35.66;38.14